Flight Track Log - Related Links

Times and Time Zones

All times are in EDT time to prevent confusion due to time zone crossing. See the CTL17 flight status page for this flight to view local times or setup timezone preferences in your user account.

Time Position Orientation Groundspeed Altitude Reporting Facility
EDT Latitude Longitude Course Direction KTS MPH feet Rate Location/Type
Thu 03:45:20 PM 42.6653 -83.4042 73° East 128 147 1,300  Level Cleveland Center
Thu 03:46:27 PM 42.6769 -83.3536 77° East 142 163 2,100 716 Climbing Cleveland Center
Thu 03:48:00 PM 42.7366 -83.4034 North  Level Estimated
Thu 03:55:00 PM 43.0327 -83.5128 321° Northwest  Level FlightAware Approximate
Thu 03:56:00 PM 43.0679 -83.5516 321° Northwest  Level FlightAware Approximate
Thu 03:57:00 PM 43.1030 -83.5905 321° Northwest  Level FlightAware Approximate
Thu 03:58:00 PM 43.1381 -83.6294 321° Northwest  Level FlightAware Approximate
Thu 03:59:00 PM 43.1732 -83.6684 321° Northwest  Level FlightAware Approximate
Thu 04:00:00 PM 43.2083 -83.7074 321° Northwest  Level FlightAware Approximate
Thu 04:01:00 PM 43.2429 -83.7472 320° Northwest  Level FlightAware Approximate
Thu 04:02:00 PM 43.2774 -83.7873 320° Northwest  Level FlightAware Approximate
Thu 04:03:00 PM 43.3118 -83.8274 320° Northwest  Level FlightAware Approximate
Thu 04:04:00 PM 43.3462 -83.8676 320° Northwest  Level FlightAware Approximate
Thu 04:05:00 PM 43.3807 -83.9078 320° Northwest  Level FlightAware Approximate
Thu 04:06:00 PM 43.4151 -83.9481 320° Northwest  Level FlightAware Approximate
Thu 04:07:00 PM 43.4515 -83.9848 324° Northwest  Level FlightAware Approximate
Thu 04:08:00 PM 43.4881 -84.0214 324° Northwest  Level FlightAware Approximate
Thu 04:09:00 PM 43.5167 -84.0667 305° West  Level FlightAware Approximate
Thu 04:10:00 PM 43.5329 -84.0796 305° West  Level Estimated
Thu 04:11:00 PM 43.5329 -84.0796 305° West  Level Estimated
Thu 04:12:00 PM 43.5329 -84.0796 305° West  Level Estimated
Thu 04:13:00 PM 43.5329 -84.0796 305° West  Level Estimated
Thu 04:14:00 PM 43.5329 -84.0796 305° West  Level Estimated
Thu 04:15:00 PM 43.5329 -84.0796 305° West  Level Estimated
Thu 04:16:00 PM 43.5329 -84.0796 305° West  Level Estimated
Thu 04:17:00 PM 43.5329 -84.0796 305° West  Level Estimated

Login

Don't have an account? Register now (free) for customized features, flight alerts, and more!